MSC Magnifica — 3FLO4 — position and weather

sailwx.info

Track history (hours):
 
Tides and Currents Weather Stations Pressure Air Temp Water Temp Dewpoint Dewpoint Depression Visibility Wind Speed Wind Dir Waves Ship Positions

MSC Magnifica

Last reported at 2018-Nov-09 16:49 UTC. Time now 2018-Nov-14 03:21 UTC.
Position N 37°32' E 023°56'.

Length 294 m; draft 7.8 m.

Type: Passenger vessel. MMSI: 352594000.

Date/timePositionNaut miles runAvg speedWind from/ knotsBaromVisibWave heightAir tempDewpointWater temp
2018-Nov-09 16:49N 37°32' E 023°56'620.6
2018-Nov-09 16:32N 37°35' E 023°50'1020.5
2018-Nov-09 16:03N 37°43' E 023°41'1020.4
2018-Nov-09 15:33N 37°52' E 023°36'5 9.1
2018-Nov-09 15:02N 37°56' E 023°38'0 0.2
2018-Nov-09 14:32N 37°56' E 023°38'0 0.0
2018-Nov-09 14:02N 37°56' E 023°38'0 0.0
2018-Nov-09 13:32N 37°56' E 023°38'0 0.0
2018-Nov-09 13:02N 37°56' E 023°38'0 0.0
2018-Nov-09 12:32N 37°56' E 023°38'0 0.0
2018-Nov-09 12:02N 37°56' E 023°38'0 0.0
2018-Nov-09 11:32N 37°56' E 023°38'0 0.0
2018-Nov-09 11:02N 37°56' E 023°38'0 0.0
2018-Nov-09 10:32N 37°56' E 023°38'0 0.0
2018-Nov-09 10:02N 37°56' E 023°38'0 0.0
2018-Nov-09 09:32N 37°56' E 023°38'0 0.0
2018-Nov-09 09:02N 37°56' E 023°38'0 0.0
2018-Nov-09 08:32N 37°56' E 023°38'0 0.0
2018-Nov-09 08:02N 37°56' E 023°38'0 0.0
2018-Nov-09 07:32N 37°56' E 023°38'0 0.0
2018-Nov-09 07:00N 37°56' E 023°38'0 0.0
2018-Nov-09 06:30N 37°56' E 023°38'0 0.0
2018-Nov-09 06:00N 37°56' E 023°38'0 0.0
2018-Nov-09 05:30N 37°56' E 023°38'0 0.0
2018-Nov-09 05:02N 37°56' E 023°38'1 1.1
2018-Nov-09 04:32N 37°56' E 023°38'2 4.0
2018-Nov-09 04:02N 37°54' E 023°37'2 4.3
2018-Nov-09 03:32N 37°52' E 023°38'612.7
2018-Nov-09 03:02N 37°47' E 023°41'713.5
2018-Nov-09 02:32N 37°41' E 023°45'612.7
2018-Nov-09 02:02N 37°34' E 023°47'713.0
2018-Nov-09 01:32N 37°28' E 023°47'713.1
2018-Nov-09 01:01N 37°21' E 023°44'612.9
2018-Nov-09 00:31N 37°15' E 023°42'21814.0
2018-Nov-08 09:00N 36°06' E 019°24'   010 / 71024.527.0 20.016.922.0
2018-Nov-05 19:02N 41°13' E 002°19'119.0
2018-Nov-05 18:59N 41°14' E 002°18'816.5
2018-Nov-05 18:31N 41°19' E 002°10'3 5.9
2018-Nov-05 18:02N 41°22' E 002°11'0 0.0
2018-Nov-05 17:56N 41°22' E 002°11'0 0.0
2018-Nov-05 17:30N 41°22' E 002°11'0 0.0
2018-Nov-05 17:01N 41°22' E 002°11'0 0.0
2018-Nov-05 16:28N 41°22' E 002°11'0 0.0
2018-Nov-05 16:03N 41°22' E 002°11'0 0.0
2018-Nov-05 15:56N 41°22' E 002°11'0 0.0
2018-Nov-05 15:26N 41°22' E 002°11'0 0.0
2018-Nov-05 14:59N 41°22' E 002°11'0 0.0
2018-Nov-05 14:23N 41°22' E 002°11'0 0.0
2018-Nov-05 14:02N 41°22' E 002°11'0 0.0
2018-Nov-05 13:31N 41°22' E 002°11'0 0.0
2018-Nov-05 13:03N 41°22' E 002°11'0 0.0
2018-Nov-05 13:00N 41°22' E 002°11'0 0.0
2018-Nov-05 12:30N 41°22' E 002°11'0 0.0
2018-Nov-05 12:01N 41°22' E 002°11'0 0.0
2018-Nov-05 11:48N 41°22' E 002°11'0 0.0
2018-Nov-05 11:27N 41°22' E 002°11'0 0.0
2018-Nov-05 11:03N 41°22' E 002°11'0 0.0
2018-Nov-05 10:51N 41°22' E 002°11'0 0.0
2018-Nov-05 10:27N 41°22' E 002°11'0 0.0
2018-Nov-05 10:03N 41°22' E 002°11'0 0.0
2018-Nov-05 10:00N 41°22' E 002°11'0 0.0
2018-Nov-05 09:30N 41°22' E 002°11'0 0.0
2018-Nov-05 09:03N 41°22' E 002°11'0 0.0
2018-Nov-05 09:00N 41°22' E 002°11'0 0.0
2018-Nov-05 08:27N 41°22' E 002°11'0 0.0
2018-Nov-05 08:03N 41°22' E 002°11'0 0.0
2018-Nov-05 07:56N 41°22' E 002°11'0 0.0
2018-Nov-05 07:25N 41°22' E 002°11'1 1.9
2018-Nov-05 07:03N 41°21' E 002°10'0 3.9
2018-Nov-05 07:00N 41°21' E 002°10'2 4.7
2018-Nov-05 06:30N 41°19' E 002°10'4 8.1
2018-Nov-05 06:03N 41°17' E 002°15'112.6
2018-Nov-05 06:01N 41°18' E 002°16'612.9
2018-Nov-05 05:30N 41°21' E 002°23'913.3
2018-Nov-05 04:50N 41°26' E 002°33'15514.3
2018-Nov-04 18:00N 43°11' E 005°07'714.2
2018-Nov-04 17:29N 43°17' E 005°11'613.2
2018-Nov-04 17:00N 43°21' E 005°18'1 0.1
2018-Nov-04 06:02N 43°21' E 005°20'0 2.0
2018-Nov-04 06:00N 43°21' E 005°19'3 6.1
2018-Nov-04 05:30N 43°19' E 005°16'510.9
2018-Nov-04 05:03N 43°15' E 005°16'113.9
2018-Nov-04 05:00N 43°14' E 005°17'6013.3
2018-Nov-04 00:29N 43°01' E 006°37'716.5
2018-Nov-04 00:03N 43°05' E 006°45'117.2
2018-Nov-04 00:00N 43°05' E 006°47'918.6
2018-Nov-03 23:30N 43°10' E 006°57'818.6
2018-Nov-03 23:03N 43°15' E 007°07'118.2
2018-Nov-03 23:00N 43°15' E 007°08'918.5
2018-Nov-03 22:30N 43°19' E 007°19'3718.5
2018-Nov-03 20:30N 43°37' E 008°04'818.4
2018-Nov-03 20:03N 43°41' E 008°14'118.3
2018-Nov-03 20:00N 43°41' E 008°15'918.3
2018-Nov-03 19:30N 43°47' E 008°25'818.2
2018-Nov-03 19:03N 43°54' E 008°32'118.0
2018-Nov-03 19:00N 43°54' E 008°33'917.9
2018-Nov-03 18:30N 44°02' E 008°40'818.0
2018-Nov-03 18:03N 44°08' E 008°46'118.2
2018-Nov-03 18:00N 44°09' E 008°47'918.1
2018-Nov-03 17:30N 44°16' E 008°54'715.2
2018-Nov-03 17:04N 44°23' E 008°57'0 9.5
2018-Nov-03 17:00N 44°23' E 008°56'2 3.2
2018-Nov-03 16:28N 44°25' E 008°55'0 0.0
2018-Nov-03 16:01N 44°25' E 008°55'0 0.0
2018-Nov-03 15:58N 44°25' E 008°55'0 0.0
2018-Nov-03 15:25N 44°25' E 008°55'0 0.0
2018-Nov-03 15:01N 44°25' E 008°55'0 0.0
2018-Nov-03 14:58N 44°25' E 008°55'0 0.0
2018-Nov-03 14:28N 44°25' E 008°55'0 0.0
2018-Nov-03 14:01N 44°25' E 008°55'0 0.0
2018-Nov-03 13:55N 44°25' E 008°55'0 0.0
2018-Nov-03 13:28N 44°25' E 008°55'0 0.0
2018-Nov-03 12:58N 44°25' E 008°55'0 0.0
2018-Nov-03 12:25N 44°25' E 008°55'0 0.0
2018-Nov-03 12:01N 44°25' E 008°55'0 0.0
2018-Nov-03 11:58N 44°25' E 008°55'0 0.0
2018-Nov-03 11:27N 44°25' E 008°55'0 0.0
2018-Nov-03 11:03N 44°25' E 008°55'0 0.0
2018-Nov-03 10:57N 44°25' E 008°55'0 0.0
2018-Nov-03 10:25N 44°25' E 008°55'0 0.0
2018-Nov-03 10:01N 44°25' E 008°55'0 0.0
2018-Nov-03 09:58N 44°25' E 008°55'0 0.0
2018-Nov-03 09:25N 44°25' E 008°55'0 0.0
2018-Nov-03 09:01N 44°25' E 008°55'0 0.0
2018-Nov-03 08:58N 44°25' E 008°55'0 0.0
2018-Nov-03 08:28N 44°25' E 008°55'0 0.0
2018-Nov-03 08:01N 44°25' E 008°55'0 0.0
2018-Nov-03 07:55N 44°25' E 008°55'0 0.4
2018-Nov-03 07:30N 44°25' E 008°55'1 1.7
2018-Nov-03 07:03N 44°24' E 008°55'0 4.9
2018-Nov-03 07:00N 44°24' E 008°56'4 7.9
2018-Nov-03 06:30N 44°20' E 008°59'918.9
2018-Nov-03 06:03N 44°13' E 008°52'120.5
2018-Nov-03 06:00N 44°13' E 008°51'1020.5
2018-Nov-03 05:30N 44°05' E 008°42'920.1
2018-Nov-03 05:03N 43°57' E 008°35'119.5
2018-Nov-03 05:00N 43°57' E 008°34'1019.4
2018-Nov-03 04:30N 43°49' E 008°25'919.2
2018-Nov-03 04:03N 43°43' E 008°16'119.7
2018-Nov-03 04:00N 43°43' E 008°15'1019.4
2018-Nov-03 03:30N 43°37' E 008°05'919.5
2018-Nov-03 03:03N 43°31' E 007°55'119.2
2018-Nov-03 03:00N 43°30' E 007°54'1019.8
2018-Nov-03 02:30N 43°24' E 007°44'1021.6
2018-Nov-03 02:03N 43°19' E 007°33'121.3
2018-Nov-03 02:00N 43°18' E 007°32'1121.3
2018-Nov-03 01:30N 43°12' E 007°20'1021.3
2018-Nov-03 01:03N 43°06' E 007°09'121.3
2018-Nov-03 01:00N 43°06' E 007°08'1121.2
2018-Nov-03 00:30N 42°60' E 006°56'920.9
2018-Nov-03 00:03N 42°54' E 006°46'120.9
2018-Nov-03 00:00N 42°53' E 006°44'20720.6
2018-Nov-02 13:56N 41°21' E 002°34'819.3
2018-Nov-02 13:31N 41°18' E 002°24'919.1
2018-Nov-02 13:04N 41°16' E 002°13'117.2
2018-Nov-02 13:01N 41°16' E 002°12'611.5
2018-Nov-02 12:30N 41°21' E 002°10'0 0.9
2018-Nov-02 12:03N 41°22' E 002°11'0 0.0
2018-Nov-02 12:00N 41°22' E 002°11'0 0.0
2018-Nov-02 11:30N 41°22' E 002°11'0 0.0
2018-Nov-02 11:03N 41°22' E 002°11'0 0.0
2018-Nov-02 11:00N 41°22' E 002°11'0 0.0
2018-Nov-02 10:30N 41°22' E 002°11'0 0.0
2018-Nov-02 10:03N 41°22' E 002°11'0 0.0
2018-Nov-02 10:01N 41°22' E 002°11'0 0.0
2018-Nov-02 09:29N 41°22' E 002°11'0 0.0
2018-Nov-02 09:02N 41°22' E 002°11'0 0.0
2018-Nov-02 08:59N 41°22' E 002°11'0 0.0
2018-Nov-02 08:29N 41°22' E 002°11'0 0.0
2018-Nov-02 08:00N 41°22' E 002°11'0 0.0
2018-Nov-02 07:30N 41°22' E 002°11'0 0.0
2018-Nov-02 07:03N 41°22' E 002°11'0 0.0
2018-Nov-02 07:00N 41°22' E 002°11'0 0.0
2018-Nov-02 06:30N 41°22' E 002°11'0 0.0
2018-Nov-02 06:03N 41°22' E 002°11'0 0.0
2018-Nov-02 06:00N 41°22' E 002°11'1 2.1
2018-Nov-02 05:30N 41°21' E 002°10'2 5.4
2018-Nov-02 05:03N 41°18' E 002°11'0 8.2
2018-Nov-02 05:00N 41°18' E 002°11'4 8.8
2018-Nov-02 04:30N 41°18' E 002°17'614.1
2018-Nov-02 04:04N 41°21' E 002°23'116.9
2018-Nov-02 04:01N 41°22' E 002°24'1016.6
2018-Nov-02 03:26N 41°27' E 002°35'15316.0
2018-Nov-01 17:51N 43°11' E 005°08'616.7
2018-Nov-01 17:30N 43°16' E 005°10'715.6
2018-Nov-01 17:03N 43°20' E 005°18'0 8.6
2018-Nov-01 17:00N 43°20' E 005°18'1 0.1
2018-Nov-01 06:13N 43°21' E 005°20'0 1.2
2018-Nov-01 06:03N 43°21' E 005°20'0 2.1
2018-Nov-01 06:00N 43°21' E 005°19'2 4.4
2018-Nov-01 05:30N 43°19' E 005°19'4 9.2
2018-Nov-01 05:03N 43°15' E 005°16'111.8
2018-Nov-01 05:00N 43°14' E 005°16'6413.3
2018-Nov-01 00:11N 43°04' E 006°43'216.7
2018-Nov-01 00:03N 43°05' E 006°46'116.7
2018-Nov-01 00:00N 43°05' E 006°47'816.2
2018-Oct-31 23:30N 43°09' E 006°56'715.6
2018-Oct-31 23:03N 43°13' E 007°04'115.6
2018-Oct-31 23:00N 43°13' E 007°05'815.5
2018-Oct-31 22:30N 43°17' E 007°15'715.6
2018-Oct-31 22:03N 43°21' E 007°23'115.7
2018-Oct-31 22:00N 43°21' E 007°24'815.7
2018-Oct-31 21:31N 43°25' E 007°33'715.6
2018-Oct-31 21:03N 43°29' E 007°42'115.8
2018-Oct-31 21:01N 43°29' E 007°43'815.7
2018-Oct-31 20:31N 43°33' E 007°52'816.6
2018-Oct-31 20:03N 43°37' E 008°01'117.6
2018-Oct-31 20:01N 43°37' E 008°02'917.8
2018-Oct-31 19:30N 43°42' E 008°13'817.7
2018-Oct-31 19:03N 43°46' E 008°22'217.6
2018-Oct-31 18:56N 43°48' E 008°24'717.5
2018-Oct-31 18:31N 43°54' E 008°30'817.3
2018-Oct-31 18:03N 43°60' E 008°36'117.1
2018-Oct-31 18:00N 44°00' E 008°37'917.1
2018-Oct-31 17:30N 44°07' E 008°44'817.3
2018-Oct-31 17:03N 44°13' E 008°51'117.5
2018-Oct-31 17:00N 44°14' E 008°52'816.3
2018-Oct-31 16:31N 44°21' E 008°57'4 8.3
2018-Oct-31 16:03N 44°25' E 008°55'0 1.2
2018-Oct-31 16:00N 44°25' E 008°55'0 0.0
2018-Oct-31 15:25N 44°25' E 008°55'0 0.0
2018-Oct-31 14:55N 44°25' E 008°55'0 0.0
2018-Oct-31 14:01N 44°25' E 008°55'0 0.0
2018-Oct-31 13:58N 44°25' E 008°55'0 0.0
2018-Oct-31 13:28N 44°25' E 008°55'0 0.0
2018-Oct-31 13:01N 44°25' E 008°55'0 0.0
2018-Oct-31 12:58N 44°25' E 008°55'0 0.0
2018-Oct-31 12:28N 44°25' E 008°55'0 0.0
2018-Oct-31 12:01N 44°25' E 008°55'0 0.0
2018-Oct-31 11:58N 44°25' E 008°55'0 0.0
2018-Oct-31 11:29N 44°25' E 008°55'0 0.0
2018-Oct-31 11:03N 44°25' E 008°55'0 0.0
2018-Oct-31 11:00N 44°25' E 008°55'0 0.0
2018-Oct-31 10:29N 44°25' E 008°55'0 0.0
2018-Oct-31 10:01N 44°25' E 008°55'0 0.0
2018-Oct-31 09:58N 44°25' E 008°55'0 0.0
2018-Oct-31 09:31N 44°25' E 008°55'0 0.0
2018-Oct-31 09:04N 44°25' E 008°55'0 0.0
2018-Oct-31 08:59N 44°25' E 008°55'0 0.0
2018-Oct-31 08:25N 44°25' E 008°55'0 0.0
2018-Oct-31 08:01N 44°25' E 008°55'0 0.0
2018-Oct-31 07:58N 44°25' E 008°55'0 0.0
2018-Oct-31 07:28N 44°25' E 008°55'0 0.0
2018-Oct-31 07:02N 44°25' E 008°55'0 0.0
2018-Oct-31 06:59N 44°25' E 008°55'0 0.7
2018-Oct-31 06:30N 44°24' E 008°55'1 1.8
2018-Oct-31 06:04N 44°24' E 008°56'0 5.8
2018-Oct-31 06:01N 44°24' E 008°56'4 7.3
2018-Oct-31 05:31N 44°20' E 008°59'510.1
2018-Oct-31 05:03N 44°17' E 008°55'116.5
2018-Oct-31 05:00N 44°16' E 008°54'1019.2
2018-Oct-31 04:30N 44°08' E 008°47'818.5
2018-Oct-31 04:03N 44°02' E 008°40'117.5
2018-Oct-31 04:00N 44°01' E 008°39'917.5
2018-Oct-31 03:30N 43°54' E 008°31'817.2
2018-Oct-31 03:03N 43°49' E 008°24'117.0
2018-Oct-31 03:00N 43°48' E 008°23'816.5
2018-Oct-31 02:30N 43°42' E 008°14'816.7
2018-Oct-31 02:03N 43°39' E 008°06'116.7
2018-Oct-31 02:00N 43°38' E 008°05'816.8
2018-Oct-31 01:30N 43°34' E 007°54'816.9
2018-Oct-31 01:03N 43°30' E 007°45'116.9
2018-Oct-31 01:00N 43°30' E 007°44'816.9
2018-Oct-31 00:30N 43°26' E 007°34'816.7
2018-Oct-31 00:03N 43°22' E 007°25'116.7
2018-Oct-31 00:00N 43°21' E 007°24'816.8
2018-Oct-30 23:30N 43°17' E 007°15'816.7
2018-Oct-30 23:03N 43°13' E 007°05'116.7
2018-Oct-30 23:00N 43°13' E 007°04'916.9
2018-Oct-30 22:30N 43°09' E 006°54'716.5
2018-Oct-30 22:03N 43°05' E 006°46'116.2
2018-Oct-30 22:00N 43°05' E 006°45'916.1
2018-Oct-30 21:25N 42°60' E 006°34'5615.3
2018-Oct-30 17:44N 43°12' E 005°18'416.4
2018-Oct-30 17:30N 43°15' E 005°16'614.1
2018-Oct-30 17:03N 43°21' E 005°19'1 7.0
2018-Oct-30 16:56N 43°21' E 005°20'  
Track history (hours):
 
Tides and Currents Weather Stations Pressure Air Temp Water Temp Dewpoint Dewpoint Depression Visibility Wind Speed Wind Dir Waves Ship Positions

MSC Magnifica

Last reported at 2018-Nov-09 16:49 UTC. Time now 2018-Nov-14 03:21 UTC.
Position N 37°32' E 023°56'.

Length 294 m; draft 7.8 m.

Type: Passenger vessel. MMSI: 352594000.

Date/timePositionNaut miles runAvg speedWind from/ knotsBaromVisibWave heightAir tempDewpointWater temp
2018-Nov-09 16:49N 37°32' E 023°56'620.6
2018-Nov-09 16:32N 37°35' E 023°50'1020.5
2018-Nov-09 16:03N 37°43' E 023°41'1020.4
2018-Nov-09 15:33N 37°52' E 023°36'5 9.1
2018-Nov-09 15:02N 37°56' E 023°38'0 0.2
2018-Nov-09 14:32N 37°56' E 023°38'0 0.0
2018-Nov-09 14:02N 37°56' E 023°38'0 0.0
2018-Nov-09 13:32N 37°56' E 023°38'0 0.0
2018-Nov-09 13:02N 37°56' E 023°38'0 0.0
2018-Nov-09 12:32N 37°56' E 023°38'0 0.0
2018-Nov-09 12:02N 37°56' E 023°38'0 0.0
2018-Nov-09 11:32N 37°56' E 023°38'0 0.0
2018-Nov-09 11:02N 37°56' E 023°38'0 0.0
2018-Nov-09 10:32N 37°56' E 023°38'0 0.0
2018-Nov-09 10:02N 37°56' E 023°38'0 0.0
2018-Nov-09 09:32N 37°56' E 023°38'0 0.0
2018-Nov-09 09:02N 37°56' E 023°38'0 0.0
2018-Nov-09 08:32N 37°56' E 023°38'0 0.0
2018-Nov-09 08:02N 37°56' E 023°38'0 0.0
2018-Nov-09 07:32N 37°56' E 023°38'0 0.0
2018-Nov-09 07:00N 37°56' E 023°38'0 0.0
2018-Nov-09 06:30N 37°56' E 023°38'0 0.0
2018-Nov-09 06:00N 37°56' E 023°38'0 0.0
2018-Nov-09 05:30N 37°56' E 023°38'0 0.0
2018-Nov-09 05:02N 37°56' E 023°38'1 1.1
2018-Nov-09 04:32N 37°56' E 023°38'2 4.0
2018-Nov-09 04:02N 37°54' E 023°37'2 4.3
2018-Nov-09 03:32N 37°52' E 023°38'612.7
2018-Nov-09 03:02N 37°47' E 023°41'713.5
2018-Nov-09 02:32N 37°41' E 023°45'612.7
2018-Nov-09 02:02N 37°34' E 023°47'713.0
2018-Nov-09 01:32N 37°28' E 023°47'713.1
2018-Nov-09 01:01N 37°21' E 023°44'612.9
2018-Nov-09 00:31N 37°15' E 023°42'21814.0
2018-Nov-08 09:00N 36°06' E 019°24'   010 / 71024.527.0 20.016.922.0
2018-Nov-05 19:02N 41°13' E 002°19'119.0
2018-Nov-05 18:59N 41°14' E 002°18'816.5
2018-Nov-05 18:31N 41°19' E 002°10'3 5.9
2018-Nov-05 18:02N 41°22' E 002°11'0 0.0
2018-Nov-05 17:56N 41°22' E 002°11'0 0.0
2018-Nov-05 17:30N 41°22' E 002°11'0 0.0
2018-Nov-05 17:01N 41°22' E 002°11'0 0.0
2018-Nov-05 16:28N 41°22' E 002°11'0 0.0
2018-Nov-05 16:03N 41°22' E 002°11'0 0.0
2018-Nov-05 15:56N 41°22' E 002°11'0 0.0
2018-Nov-05 15:26N 41°22' E 002°11'0 0.0
2018-Nov-05 14:59N 41°22' E 002°11'0 0.0
2018-Nov-05 14:23N 41°22' E 002°11'0 0.0
2018-Nov-05 14:02N 41°22' E 002°11'0 0.0
2018-Nov-05 13:31N 41°22' E 002°11'0 0.0
2018-Nov-05 13:03N 41°22' E 002°11'0 0.0
2018-Nov-05 13:00N 41°22' E 002°11'0 0.0
2018-Nov-05 12:30N 41°22' E 002°11'0 0.0
2018-Nov-05 12:01N 41°22' E 002°11'0 0.0
2018-Nov-05 11:48N 41°22' E 002°11'0 0.0
2018-Nov-05 11:27N 41°22' E 002°11'0 0.0
2018-Nov-05 11:03N 41°22' E 002°11'0 0.0
2018-Nov-05 10:51N 41°22' E 002°11'0 0.0
2018-Nov-05 10:27N 41°22' E 002°11'0 0.0
2018-Nov-05 10:03N 41°22' E 002°11'0 0.0
2018-Nov-05 10:00N 41°22' E 002°11'0 0.0
2018-Nov-05 09:30N 41°22' E 002°11'0 0.0
2018-Nov-05 09:03N 41°22' E 002°11'0 0.0
2018-Nov-05 09:00N 41°22' E 002°11'0 0.0
2018-Nov-05 08:27N 41°22' E 002°11'0 0.0
2018-Nov-05 08:03N 41°22' E 002°11'0 0.0
2018-Nov-05 07:56N 41°22' E 002°11'0 0.0
2018-Nov-05 07:25N 41°22' E 002°11'1 1.9
2018-Nov-05 07:03N 41°21' E 002°10'0 3.9
2018-Nov-05 07:00N 41°21' E 002°10'2 4.7
2018-Nov-05 06:30N 41°19' E 002°10'4 8.1
2018-Nov-05 06:03N 41°17' E 002°15'112.6
2018-Nov-05 06:01N 41°18' E 002°16'612.9
2018-Nov-05 05:30N 41°21' E 002°23'913.3
2018-Nov-05 04:50N 41°26' E 002°33'15514.3
2018-Nov-04 18:00N 43°11' E 005°07'714.2
2018-Nov-04 17:29N 43°17' E 005°11'613.2
2018-Nov-04 17:00N 43°21' E 005°18'1 0.1
2018-Nov-04 06:02N 43°21' E 005°20'0 2.0
2018-Nov-04 06:00N 43°21' E 005°19'3 6.1
2018-Nov-04 05:30N 43°19' E 005°16'510.9
2018-Nov-04 05:03N 43°15' E 005°16'113.9
2018-Nov-04 05:00N 43°14' E 005°17'6013.3
2018-Nov-04 00:29N 43°01' E 006°37'716.5
2018-Nov-04 00:03N 43°05' E 006°45'117.2
2018-Nov-04 00:00N 43°05' E 006°47'918.6
2018-Nov-03 23:30N 43°10' E 006°57'818.6
2018-Nov-03 23:03N 43°15' E 007°07'118.2
2018-Nov-03 23:00N 43°15' E 007°08'918.5
2018-Nov-03 22:30N 43°19' E 007°19'3718.5
2018-Nov-03 20:30N 43°37' E 008°04'818.4
2018-Nov-03 20:03N 43°41' E 008°14'118.3
2018-Nov-03 20:00N 43°41' E 008°15'918.3
2018-Nov-03 19:30N 43°47' E 008°25'818.2
2018-Nov-03 19:03N 43°54' E 008°32'118.0
2018-Nov-03 19:00N 43°54' E 008°33'917.9
2018-Nov-03 18:30N 44°02' E 008°40'818.0
2018-Nov-03 18:03N 44°08' E 008°46'118.2
2018-Nov-03 18:00N 44°09' E 008°47'918.1
2018-Nov-03 17:30N 44°16' E 008°54'715.2
2018-Nov-03 17:04N 44°23' E 008°57'0 9.5
2018-Nov-03 17:00N 44°23' E 008°56'2 3.2
2018-Nov-03 16:28N 44°25' E 008°55'0 0.0
2018-Nov-03 16:01N 44°25' E 008°55'0 0.0
2018-Nov-03 15:58N 44°25' E 008°55'0 0.0
2018-Nov-03 15:25N 44°25' E 008°55'0 0.0
2018-Nov-03 15:01N 44°25' E 008°55'0 0.0
2018-Nov-03 14:58N 44°25' E 008°55'0 0.0
2018-Nov-03 14:28N 44°25' E 008°55'0 0.0
2018-Nov-03 14:01N 44°25' E 008°55'0 0.0
2018-Nov-03 13:55N 44°25' E 008°55'0 0.0
2018-Nov-03 13:28N 44°25' E 008°55'0 0.0
2018-Nov-03 12:58N 44°25' E 008°55'0 0.0
2018-Nov-03 12:25N 44°25' E 008°55'0 0.0
2018-Nov-03 12:01N 44°25' E 008°55'0 0.0
2018-Nov-03 11:58N 44°25' E 008°55'0 0.0
2018-Nov-03 11:27N 44°25' E 008°55'0 0.0
2018-Nov-03 11:03N 44°25' E 008°55'0 0.0
2018-Nov-03 10:57N 44°25' E 008°55'0 0.0
2018-Nov-03 10:25N 44°25' E 008°55'0 0.0
2018-Nov-03 10:01N 44°25' E 008°55'0 0.0
2018-Nov-03 09:58N 44°25' E 008°55'0 0.0
2018-Nov-03 09:25N 44°25' E 008°55'0 0.0
2018-Nov-03 09:01N 44°25' E 008°55'0 0.0
2018-Nov-03 08:58N 44°25' E 008°55'0 0.0
2018-Nov-03 08:28N 44°25' E 008°55'0 0.0
2018-Nov-03 08:01N 44°25' E 008°55'0 0.0
2018-Nov-03 07:55N 44°25' E 008°55'0 0.4
2018-Nov-03 07:30N 44°25' E 008°55'1 1.7
2018-Nov-03 07:03N 44°24' E 008°55'0 4.9
2018-Nov-03 07:00N 44°24' E 008°56'4 7.9
2018-Nov-03 06:30N 44°20' E 008°59'918.9
2018-Nov-03 06:03N 44°13' E 008°52'120.5
2018-Nov-03 06:00N 44°13' E 008°51'1020.5
2018-Nov-03 05:30N 44°05' E 008°42'920.1
2018-Nov-03 05:03N 43°57' E 008°35'119.5
2018-Nov-03 05:00N 43°57' E 008°34'1019.4
2018-Nov-03 04:30N 43°49' E 008°25'919.2
2018-Nov-03 04:03N 43°43' E 008°16'119.7
2018-Nov-03 04:00N 43°43' E 008°15'1019.4
2018-Nov-03 03:30N 43°37' E 008°05'919.5
2018-Nov-03 03:03N 43°31' E 007°55'119.2
2018-Nov-03 03:00N 43°30' E 007°54'1019.8
2018-Nov-03 02:30N 43°24' E 007°44'1021.6
2018-Nov-03 02:03N 43°19' E 007°33'121.3
2018-Nov-03 02:00N 43°18' E 007°32'1121.3
2018-Nov-03 01:30N 43°12' E 007°20'1021.3
2018-Nov-03 01:03N 43°06' E 007°09'121.3
2018-Nov-03 01:00N 43°06' E 007°08'1121.2
2018-Nov-03 00:30N 42°60' E 006°56'920.9
2018-Nov-03 00:03N 42°54' E 006°46'120.9
2018-Nov-03 00:00N 42°53' E 006°44'20720.6
2018-Nov-02 13:56N 41°21' E 002°34'819.3
2018-Nov-02 13:31N 41°18' E 002°24'919.1
2018-Nov-02 13:04N 41°16' E 002°13'117.2
2018-Nov-02 13:01N 41°16' E 002°12'611.5
2018-Nov-02 12:30N 41°21' E 002°10'0 0.9
2018-Nov-02 12:03N 41°22' E 002°11'0 0.0
2018-Nov-02 12:00N 41°22' E 002°11'0 0.0
2018-Nov-02 11:30N 41°22' E 002°11'0 0.0
2018-Nov-02 11:03N 41°22' E 002°11'0 0.0
2018-Nov-02 11:00N 41°22' E 002°11'0 0.0
2018-Nov-02 10:30N 41°22' E 002°11'0 0.0
2018-Nov-02 10:03N 41°22' E 002°11'0 0.0
2018-Nov-02 10:01N 41°22' E 002°11'0 0.0
2018-Nov-02 09:29N 41°22' E 002°11'0 0.0
2018-Nov-02 09:02N 41°22' E 002°11'0 0.0
2018-Nov-02 08:59N 41°22' E 002°11'0 0.0
2018-Nov-02 08:29N 41°22' E 002°11'0 0.0
2018-Nov-02 08:00N 41°22' E 002°11'0 0.0
2018-Nov-02 07:30N 41°22' E 002°11'0 0.0
2018-Nov-02 07:03N 41°22' E 002°11'0 0.0
2018-Nov-02 07:00N 41°22' E 002°11'0 0.0
2018-Nov-02 06:30N 41°22' E 002°11'0 0.0
2018-Nov-02 06:03N 41°22' E 002°11'0 0.0
2018-Nov-02 06:00N 41°22' E 002°11'1 2.1
2018-Nov-02 05:30N 41°21' E 002°10'2 5.4
2018-Nov-02 05:03N 41°18' E 002°11'0 8.2
2018-Nov-02 05:00N 41°18' E 002°11'4 8.8
2018-Nov-02 04:30N 41°18' E 002°17'614.1
2018-Nov-02 04:04N 41°21' E 002°23'116.9
2018-Nov-02 04:01N 41°22' E 002°24'1016.6
2018-Nov-02 03:26N 41°27' E 002°35'15316.0
2018-Nov-01 17:51N 43°11' E 005°08'616.7
2018-Nov-01 17:30N 43°16' E 005°10'715.6
2018-Nov-01 17:03N 43°20' E 005°18'0 8.6
2018-Nov-01 17:00N 43°20' E 005°18'1 0.1
2018-Nov-01 06:13N 43°21' E 005°20'0 1.2
2018-Nov-01 06:03N 43°21' E 005°20'0 2.1
2018-Nov-01 06:00N 43°21' E 005°19'2 4.4
2018-Nov-01 05:30N 43°19' E 005°19'4 9.2
2018-Nov-01 05:03N 43°15' E 005°16'111.8
2018-Nov-01 05:00N 43°14' E 005°16'6413.3
2018-Nov-01 00:11N 43°04' E 006°43'216.7
2018-Nov-01 00:03N 43°05' E 006°46'116.7
2018-Nov-01 00:00N 43°05' E 006°47'816.2
2018-Oct-31 23:30N 43°09' E 006°56'715.6
2018-Oct-31 23:03N 43°13' E 007°04'115.6
2018-Oct-31 23:00N 43°13' E 007°05'815.5
2018-Oct-31 22:30N 43°17' E 007°15'715.6
2018-Oct-31 22:03N 43°21' E 007°23'115.7
2018-Oct-31 22:00N 43°21' E 007°24'815.7
2018-Oct-31 21:31N 43°25' E 007°33'715.6
2018-Oct-31 21:03N 43°29' E 007°42'115.8
2018-Oct-31 21:01N 43°29' E 007°43'815.7
2018-Oct-31 20:31N 43°33' E 007°52'816.6
2018-Oct-31 20:03N 43°37' E 008°01'117.6
2018-Oct-31 20:01N 43°37' E 008°02'917.8
2018-Oct-31 19:30N 43°42' E 008°13'817.7
2018-Oct-31 19:03N 43°46' E 008°22'217.6
2018-Oct-31 18:56N 43°48' E 008°24'717.5
2018-Oct-31 18:31N 43°54' E 008°30'817.3
2018-Oct-31 18:03N 43°60' E 008°36'117.1
2018-Oct-31 18:00N 44°00' E 008°37'917.1
2018-Oct-31 17:30N 44°07' E 008°44'817.3
2018-Oct-31 17:03N 44°13' E 008°51'117.5
2018-Oct-31 17:00N 44°14' E 008°52'816.3
2018-Oct-31 16:31N 44°21' E 008°57'4 8.3
2018-Oct-31 16:03N 44°25' E 008°55'0 1.2
2018-Oct-31 16:00N 44°25' E 008°55'0 0.0
2018-Oct-31 15:25N 44°25' E 008°55'0 0.0
2018-Oct-31 14:55N 44°25' E 008°55'0 0.0
2018-Oct-31 14:01N 44°25' E 008°55'0 0.0
2018-Oct-31 13:58N 44°25' E 008°55'0 0.0
2018-Oct-31 13:28N 44°25' E 008°55'0 0.0
2018-Oct-31 13:01N 44°25' E 008°55'0 0.0
2018-Oct-31 12:58N 44°25' E 008°55'0 0.0
2018-Oct-31 12:28N 44°25' E 008°55'0 0.0
2018-Oct-31 12:01N 44°25' E 008°55'0 0.0
2018-Oct-31 11:58N 44°25' E 008°55'0 0.0
2018-Oct-31 11:29N 44°25' E 008°55'0 0.0
2018-Oct-31 11:03N 44°25' E 008°55'0 0.0
2018-Oct-31 11:00N 44°25' E 008°55'0 0.0
2018-Oct-31 10:29N 44°25' E 008°55'0 0.0
2018-Oct-31 10:01N 44°25' E 008°55'0 0.0
2018-Oct-31 09:58N 44°25' E 008°55'0 0.0
2018-Oct-31 09:31N 44°25' E 008°55'0 0.0
2018-Oct-31 09:04N 44°25' E 008°55'0 0.0
2018-Oct-31 08:59N 44°25' E 008°55'0 0.0
2018-Oct-31 08:25N 44°25' E 008°55'0 0.0
2018-Oct-31 08:01N 44°25' E 008°55'0 0.0
2018-Oct-31 07:58N 44°25' E 008°55'0 0.0
2018-Oct-31 07:28N 44°25' E 008°55'0 0.0
2018-Oct-31 07:02N 44°25' E 008°55'0 0.0
2018-Oct-31 06:59N 44°25' E 008°55'0 0.7
2018-Oct-31 06:30N 44°24' E 008°55'1 1.8
2018-Oct-31 06:04N 44°24' E 008°56'0 5.8
2018-Oct-31 06:01N 44°24' E 008°56'4 7.3
2018-Oct-31 05:31N 44°20' E 008°59'510.1
2018-Oct-31 05:03N 44°17' E 008°55'116.5
2018-Oct-31 05:00N 44°16' E 008°54'1019.2
2018-Oct-31 04:30N 44°08' E 008°47'818.5
2018-Oct-31 04:03N 44°02' E 008°40'117.5
2018-Oct-31 04:00N 44°01' E 008°39'917.5
2018-Oct-31 03:30N 43°54' E 008°31'817.2
2018-Oct-31 03:03N 43°49' E 008°24'117.0
2018-Oct-31 03:00N 43°48' E 008°23'816.5
2018-Oct-31 02:30N 43°42' E 008°14'816.7
2018-Oct-31 02:03N 43°39' E 008°06'116.7
2018-Oct-31 02:00N 43°38' E 008°05'816.8
2018-Oct-31 01:30N 43°34' E 007°54'816.9
2018-Oct-31 01:03N 43°30' E 007°45'116.9
2018-Oct-31 01:00N 43°30' E 007°44'816.9
2018-Oct-31 00:30N 43°26' E 007°34'816.7
2018-Oct-31 00:03N 43°22' E 007°25'116.7
2018-Oct-31 00:00N 43°21' E 007°24'816.8
2018-Oct-30 23:30N 43°17' E 007°15'816.7
2018-Oct-30 23:03N 43°13' E 007°05'116.7
2018-Oct-30 23:00N 43°13' E 007°04'916.9
2018-Oct-30 22:30N 43°09' E 006°54'716.5
2018-Oct-30 22:03N 43°05' E 006°46'116.2
2018-Oct-30 22:00N 43°05' E 006°45'916.1
2018-Oct-30 21:25N 42°60' E 006°34'5615.3
2018-Oct-30 17:44N 43°12' E 005°18'416.4
2018-Oct-30 17:30N 43°15' E 005°16'614.1
2018-Oct-30 17:03N 43°21' E 005°19'1 7.0
2018-Oct-30 16:56N 43°21' E 005°20'  

Dump ship's entire track history